sensor_id;sensor_type;location;lat;lon;timestamp;P1;durP1;ratioP1;P2;durP2;ratioP2
78887;SDS011;68276;49.326;8.690;2023-03-11T00:00:34;17.95;;;3.65;;
78887;SDS011;68276;49.326;8.690;2023-03-11T00:03:02;2.33;;;0.65;;
78887;SDS011;68276;49.326;8.690;2023-03-11T00:05:30;0.98;;;0.32;;
78887;SDS011;68276;49.326;8.690;2023-03-11T00:07:58;0.15;;;0.15;;
78887;SDS011;68276;49.326;8.690;2023-03-11T00:10:33;1.52;;;0.38;;
78887;SDS011;68276;49.326;8.690;2023-03-11T00:13:01;1.55;;;0.52;;
78887;SDS011;68276;49.326;8.690;2023-03-11T00:15:27;0.47;;;0.25;;
78887;SDS011;68276;49.326;8.690;2023-03-11T00:17:53;2.17;;;0.60;;
78887;SDS011;68276;49.326;8.690;2023-03-11T00:20:21;1.73;;;0.38;;
78887;SDS011;68276;49.326;8.690;2023-03-11T00:22:51;2.15;;;0.50;;
78887;SDS011;68276;49.326;8.690;2023-03-11T00:25:18;1.45;;;0.32;;
78887;SDS011;68276;49.326;8.690;2023-03-11T00:27:44;1.27;;;0.20;;
78887;SDS011;68276;49.326;8.690;2023-03-11T00:30:10;0.40;;;0.25;;
78887;SDS011;68276;49.326;8.690;2023-03-11T00:35:02;0.77;;;0.25;;
78887;SDS011;68276;49.326;8.690;2023-03-11T00:37:28;1.73;;;0.43;;
78887;SDS011;68276;49.326;8.690;2023-03-11T00:39:53;2.60;;;0.50;;
78887;SDS011;68276;49.326;8.690;2023-03-11T00:42:18;1.87;;;0.30;;
78887;SDS011;68276;49.326;8.690;2023-03-11T00:44:44;3.10;;;1.17;;
78887;SDS011;68276;49.326;8.690;2023-03-11T00:47:10;4.30;;;0.40;;
78887;SDS011;68276;49.326;8.690;2023-03-11T00:49:36;0.98;;;0.45;;
78887;SDS011;68276;49.326;8.690;2023-03-11T00:52:01;0.88;;;0.40;;
78887;SDS011;68276;49.326;8.690;2023-03-11T00:54:27;1.35;;;0.25;;
78887;SDS011;68276;49.326;8.690;2023-03-11T00:56:53;1.55;;;0.40;;
78887;SDS011;68276;49.326;8.690;2023-03-11T00:59:18;1.20;;;0.20;;
78887;SDS011;68276;49.326;8.690;2023-03-11T01:01:44;1.60;;;0.40;;
78887;SDS011;68276;49.326;8.690;2023-03-11T01:04:09;0.47;;;0.30;;
78887;SDS011;68276;49.326;8.690;2023-03-11T01:06:35;1.02;;;0.30;;
78887;SDS011;68276;49.326;8.690;2023-03-11T01:09:00;1.20;;;0.30;;
78887;SDS011;68276;49.326;8.690;2023-03-11T01:11:26;0.70;;;0.28;;
78887;SDS011;68276;49.326;8.690;2023-03-11T01:13:51;0.93;;;0.40;;
78887;SDS011;68276;49.326;8.690;2023-03-11T01:16:16;0.50;;;0.23;;
78887;SDS011;68276;49.326;8.690;2023-03-11T01:18:42;1.33;;;0.37;;
78887;SDS011;68276;49.326;8.690;2023-03-11T01:21:07;1.40;;;0.30;;
78887;SDS011;68276;49.326;8.690;2023-03-11T01:23:33;1.95;;;0.57;;
78887;SDS011;68276;49.326;8.690;2023-03-11T01:25:58;0.30;;;0.30;;
78887;SDS011;68276;49.326;8.690;2023-03-11T01:28:24;0.83;;;0.27;;
78887;SDS011;68276;49.326;8.690;2023-03-11T01:30:49;1.40;;;0.40;;
78887;SDS011;68276;49.326;8.690;2023-03-11T01:33:15;0.98;;;0.20;;
78887;SDS011;68276;49.326;8.690;2023-03-11T01:35:43;1.52;;;0.30;;
78887;SDS011;68276;49.326;8.690;2023-03-11T01:38:09;2.63;;;0.50;;
78887;SDS011;68276;49.326;8.690;2023-03-11T01:43:02;0.10;;;0.10;;
78887;SDS011;68276;49.326;8.690;2023-03-11T01:48:04;0.55;;;0.20;;
78887;SDS011;68276;49.326;8.690;2023-03-11T01:50:34;1.33;;;0.40;;
78887;SDS011;68276;49.326;8.690;2023-03-11T01:53:02;1.60;;;0.50;;
78887;SDS011;68276;49.326;8.690;2023-03-11T01:55:28;0.93;;;0.30;;
78887;SDS011;68276;49.326;8.690;2023-03-11T01:57:56;0.85;;;0.30;;
78887;SDS011;68276;49.326;8.690;2023-03-11T02:00:21;2.20;;;0.60;;
78887;SDS011;68276;49.326;8.690;2023-03-11T02:02:49;2.47;;;0.50;;
78887;SDS011;68276;49.326;8.690;2023-03-11T02:05:17;0.30;;;0.20;;
78887;SDS011;68276;49.326;8.690;2023-03-11T02:07:44;1.17;;;0.30;;
78887;SDS011;68276;49.326;8.690;2023-03-11T02:10:11;1.52;;;0.40;;
78887;SDS011;68276;49.326;8.690;2023-03-11T02:15:03;1.30;;;0.30;;
78887;SDS011;68276;49.326;8.690;2023-03-11T02:17:30;1.40;;;0.30;;
78887;SDS011;68276;49.326;8.690;2023-03-11T02:22:45;3.35;;;0.47;;
78887;SDS011;68276;49.326;8.690;2023-03-11T02:25:21;2.28;;;0.55;;
78887;SDS011;68276;49.326;8.690;2023-03-11T02:28:10;1.48;;;0.40;;
78887;SDS011;68276;49.326;8.690;2023-03-11T02:30:40;1.95;;;0.65;;
78887;SDS011;68276;49.326;8.690;2023-03-11T02:33:07;2.30;;;0.60;;
78887;SDS011;68276;49.326;8.690;2023-03-11T02:35:33;3.65;;;1.02;;
78887;SDS011;68276;49.326;8.690;2023-03-11T02:37:59;5.22;;;0.40;;
78887;SDS011;68276;49.326;8.690;2023-03-11T02:43:00;2.38;;;0.65;;
78887;SDS011;68276;49.326;8.690;2023-03-11T02:45:29;2.50;;;0.50;;
78887;SDS011;68276;49.326;8.690;2023-03-11T02:47:56;2.50;;;0.40;;
78887;SDS011;68276;49.326;8.690;2023-03-11T02:50:23;1.83;;;0.28;;
78887;SDS011;68276;49.326;8.690;2023-03-11T02:52:51;0.70;;;0.50;;
78887;SDS011;68276;49.326;8.690;2023-03-11T02:55:16;4.60;;;0.55;;
78887;SDS011;68276;49.326;8.690;2023-03-11T02:57:44;3.97;;;0.57;;
78887;SDS011;68276;49.326;8.690;2023-03-11T03:00:10;2.30;;;0.45;;
78887;SDS011;68276;49.326;8.690;2023-03-11T03:02:40;2.60;;;0.77;;
78887;SDS011;68276;49.326;8.690;2023-03-11T03:05:07;2.83;;;0.50;;
78887;SDS011;68276;49.326;8.690;2023-03-11T03:07:32;0.65;;;0.30;;
78887;SDS011;68276;49.326;8.690;2023-03-11T03:09:58;2.30;;;0.38;;
78887;SDS011;68276;49.326;8.690;2023-03-11T03:12:23;3.22;;;0.65;;
78887;SDS011;68276;49.326;8.690;2023-03-11T03:14:49;3.17;;;0.75;;
78887;SDS011;68276;49.326;8.690;2023-03-11T03:17:14;0.77;;;0.35;;
78887;SDS011;68276;49.326;8.690;2023-03-11T03:19:40;2.72;;;0.52;;
78887;SDS011;68276;49.326;8.690;2023-03-11T03:22:05;2.45;;;0.55;;
78887;SDS011;68276;49.326;8.690;2023-03-11T03:24:31;4.90;;;0.70;;
78887;SDS011;68276;49.326;8.690;2023-03-11T03:26:56;4.03;;;0.50;;
78887;SDS011;68276;49.326;8.690;2023-03-11T03:29:22;1.83;;;0.47;;
78887;SDS011;68276;49.326;8.690;2023-03-11T03:31:47;2.67;;;0.55;;
78887;SDS011;68276;49.326;8.690;2023-03-11T03:34:12;2.60;;;0.47;;
78887;SDS011;68276;49.326;8.690;2023-03-11T03:36:38;7.80;;;0.70;;
78887;SDS011;68276;49.326;8.690;2023-03-11T03:39:04;3.23;;;0.50;;
78887;SDS011;68276;49.326;8.690;2023-03-11T03:41:29;2.83;;;0.63;;
78887;SDS011;68276;49.326;8.690;2023-03-11T03:43:55;2.67;;;0.40;;
78887;SDS011;68276;49.326;8.690;2023-03-11T03:46:20;1.48;;;0.50;;
78887;SDS011;68276;49.326;8.690;2023-03-11T03:48:46;7.97;;;0.70;;
78887;SDS011;68276;49.326;8.690;2023-03-11T03:51:11;3.57;;;0.50;;
78887;SDS011;68276;49.326;8.690;2023-03-11T03:53:38;2.92;;;0.68;;
78887;SDS011;68276;49.326;8.690;2023-03-11T03:56:09;0.80;;;0.50;;
78887;SDS011;68276;49.326;8.690;2023-03-11T03:58:36;1.08;;;0.35;;
78887;SDS011;68276;49.326;8.690;2023-03-11T04:01:02;3.95;;;0.70;;
78887;SDS011;68276;49.326;8.690;2023-03-11T04:03:28;2.90;;;0.43;;
78887;SDS011;68276;49.326;8.690;2023-03-11T04:06:04;1.33;;;0.47;;
78887;SDS011;68276;49.326;8.690;2023-03-11T04:08:46;4.57;;;0.70;;
78887;SDS011;68276;49.326;8.690;2023-03-11T04:11:11;2.67;;;0.43;;
78887;SDS011;68276;49.326;8.690;2023-03-11T04:13:37;1.38;;;0.50;;
78887;SDS011;68276;49.326;8.690;2023-03-11T04:16:03;2.42;;;0.52;;
78887;SDS011;68276;49.326;8.690;2023-03-11T04:20:55;1.87;;;0.63;;
78887;SDS011;68276;49.326;8.690;2023-03-11T04:23:20;3.85;;;0.60;;
78887;SDS011;68276;49.326;8.690;2023-03-11T04:25:46;4.80;;;0.65;;
78887;SDS011;68276;49.326;8.690;2023-03-11T04:28:12;1.47;;;0.50;;
78887;SDS011;68276;49.326;8.690;2023-03-11T04:30:39;2.85;;;0.50;;
78887;SDS011;68276;49.326;8.690;2023-03-11T04:33:05;5.50;;;0.85;;
78887;SDS011;68276;49.326;8.690;2023-03-11T04:35:30;3.10;;;0.53;;
78887;SDS011;68276;49.326;8.690;2023-03-11T04:37:57;6.13;;;1.30;;
78887;SDS011;68276;49.326;8.690;2023-03-11T04:40:23;4.95;;;1.00;;
78887;SDS011;68276;49.326;8.690;2023-03-11T04:42:49;3.37;;;0.80;;
78887;SDS011;68276;49.326;8.690;2023-03-11T04:45:14;3.17;;;0.63;;
78887;SDS011;68276;49.326;8.690;2023-03-11T04:47:42;5.28;;;0.95;;
78887;SDS011;68276;49.326;8.690;2023-03-11T04:50:08;2.22;;;0.65;;
78887;SDS011;68276;49.326;8.690;2023-03-11T04:52:33;2.95;;;0.70;;
78887;SDS011;68276;49.326;8.690;2023-03-11T04:54:59;1.50;;;0.40;;
78887;SDS011;68276;49.326;8.690;2023-03-11T04:57:26;1.70;;;0.45;;
78887;SDS011;68276;49.326;8.690;2023-03-11T04:59:52;1.47;;;0.57;;
78887;SDS011;68276;49.326;8.690;2023-03-11T05:02:17;7.83;;;0.77;;
78887;SDS011;68276;49.326;8.690;2023-03-11T05:04:42;4.28;;;1.05;;
78887;SDS011;68276;49.326;8.690;2023-03-11T05:07:09;5.13;;;0.85;;
78887;SDS011;68276;49.326;8.690;2023-03-11T05:09:34;4.20;;;0.77;;
78887;SDS011;68276;49.326;8.690;2023-03-11T05:12:00;2.25;;;0.63;;
78887;SDS011;68276;49.326;8.690;2023-03-11T05:14:25;3.40;;;0.60;;
78887;SDS011;68276;49.326;8.690;2023-03-11T05:16:51;4.53;;;0.52;;
78887;SDS011;68276;49.326;8.690;2023-03-11T05:19:16;2.23;;;0.53;;
78887;SDS011;68276;49.326;8.690;2023-03-11T05:21:58;2.55;;;0.40;;
78887;SDS011;68276;49.326;8.690;2023-03-11T05:24:23;4.20;;;0.80;;
78887;SDS011;68276;49.326;8.690;2023-03-11T05:26:52;2.70;;;0.40;;
78887;SDS011;68276;49.326;8.690;2023-03-11T05:29:18;0.82;;;0.30;;
78887;SDS011;68276;49.326;8.690;2023-03-11T05:31:43;2.33;;;0.47;;
78887;SDS011;68276;49.326;8.690;2023-03-11T05:34:09;2.63;;;0.80;;
78887;SDS011;68276;49.326;8.690;2023-03-11T05:36:34;2.63;;;0.65;;
78887;SDS011;68276;49.326;8.690;2023-03-11T05:39:00;9.88;;;1.02;;
78887;SDS011;68276;49.326;8.690;2023-03-11T05:41:25;3.40;;;0.70;;
78887;SDS011;68276;49.326;8.690;2023-03-11T05:43:50;2.20;;;0.70;;
78887;SDS011;68276;49.326;8.690;2023-03-11T05:46:16;2.27;;;0.50;;
78887;SDS011;68276;49.326;8.690;2023-03-11T05:48:42;2.38;;;0.63;;
78887;SDS011;68276;49.326;8.690;2023-03-11T05:51:08;4.73;;;0.60;;
78887;SDS011;68276;49.326;8.690;2023-03-11T05:53:34;3.75;;;0.70;;
78887;SDS011;68276;49.326;8.690;2023-03-11T05:56:00;3.35;;;0.68;;
78887;SDS011;68276;49.326;8.690;2023-03-11T05:58:30;1.30;;;0.60;;
78887;SDS011;68276;49.326;8.690;2023-03-11T06:00:56;5.07;;;1.45;;
78887;SDS011;68276;49.326;8.690;2023-03-11T06:03:24;3.28;;;0.65;;
78887;SDS011;68276;49.326;8.690;2023-03-11T06:05:50;2.83;;;0.60;;
78887;SDS011;68276;49.326;8.690;2023-03-11T06:08:16;5.47;;;0.60;;
78887;SDS011;68276;49.326;8.690;2023-03-11T06:10:42;3.58;;;0.50;;
78887;SDS011;68276;49.326;8.690;2023-03-11T06:13:08;4.50;;;0.60;;
78887;SDS011;68276;49.326;8.690;2023-03-11T06:15:35;2.70;;;0.50;;
78887;SDS011;68276;49.326;8.690;2023-03-11T06:18:01;6.05;;;0.80;;
78887;SDS011;68276;49.326;8.690;2023-03-11T06:20:27;2.50;;;0.65;;
78887;SDS011;68276;49.326;8.690;2023-03-11T06:22:53;3.83;;;0.80;;
78887;SDS011;68276;49.326;8.690;2023-03-11T06:25:18;1.90;;;0.57;;
78887;SDS011;68276;49.326;8.690;2023-03-11T06:27:47;6.70;;;1.40;;
78887;SDS011;68276;49.326;8.690;2023-03-11T06:30:14;5.88;;;1.05;;
78887;SDS011;68276;49.326;8.690;2023-03-11T06:32:42;5.47;;;1.05;;
78887;SDS011;68276;49.326;8.690;2023-03-11T06:35:08;2.10;;;0.70;;
78887;SDS011;68276;49.326;8.690;2023-03-11T06:37:37;5.82;;;1.02;;
78887;SDS011;68276;49.326;8.690;2023-03-11T06:40:03;2.13;;;0.60;;
78887;SDS011;68276;49.326;8.690;2023-03-11T06:42:31;4.32;;;1.08;;
78887;SDS011;68276;49.326;8.690;2023-03-11T06:44:56;4.90;;;1.10;;
78887;SDS011;68276;49.326;8.690;2023-03-11T06:47:22;6.60;;;1.10;;
78887;SDS011;68276;49.326;8.690;2023-03-11T06:49:48;8.88;;;1.23;;
78887;SDS011;68276;49.326;8.690;2023-03-11T06:52:14;8.82;;;1.23;;
78887;SDS011;68276;49.326;8.690;2023-03-11T06:54:40;4.90;;;1.13;;
78887;SDS011;68276;49.326;8.690;2023-03-11T06:57:06;5.03;;;1.20;;
78887;SDS011;68276;49.326;8.690;2023-03-11T06:59:32;6.35;;;1.38;;
78887;SDS011;68276;49.326;8.690;2023-03-11T07:01:58;5.60;;;1.30;;
78887;SDS011;68276;49.326;8.690;2023-03-11T07:04:23;5.93;;;1.17;;
78887;SDS011;68276;49.326;8.690;2023-03-11T07:06:49;5.10;;;1.02;;
78887;SDS011;68276;49.326;8.690;2023-03-11T07:09:14;6.10;;;0.97;;
78887;SDS011;68276;49.326;8.690;2023-03-11T07:11:39;8.20;;;1.20;;
78887;SDS011;68276;49.326;8.690;2023-03-11T07:14:05;5.80;;;1.00;;
78887;SDS011;68276;49.326;8.690;2023-03-11T07:16:30;6.00;;;0.90;;
78887;SDS011;68276;49.326;8.690;2023-03-11T07:19:00;3.15;;;0.70;;
78887;SDS011;68276;49.326;8.690;2023-03-11T07:21:28;3.42;;;1.05;;
78887;SDS011;68276;49.326;8.690;2023-03-11T07:23:55;5.30;;;1.08;;
78887;SDS011;68276;49.326;8.690;2023-03-11T07:26:21;6.60;;;1.10;;
78887;SDS011;68276;49.326;8.690;2023-03-11T07:28:52;4.63;;;1.00;;
78887;SDS011;68276;49.326;8.690;2023-03-11T07:31:19;6.97;;;1.20;;
78887;SDS011;68276;49.326;8.690;2023-03-11T07:33:47;8.82;;;1.25;;
78887;SDS011;68276;49.326;8.690;2023-03-11T07:36:14;3.05;;;0.93;;
78887;SDS011;68276;49.326;8.690;2023-03-11T07:38:42;4.32;;;1.15;;
78887;SDS011;68276;49.326;8.690;2023-03-11T07:41:09;3.92;;;1.10;;
78887;SDS011;68276;49.326;8.690;2023-03-11T07:43:36;2.15;;;0.50;;
78887;SDS011;68276;49.326;8.690;2023-03-11T07:48:27;3.30;;;1.13;;
78887;SDS011;68276;49.326;8.690;2023-03-11T07:50:58;5.23;;;1.20;;
78887;SDS011;68276;49.326;8.690;2023-03-11T07:53:25;3.83;;;1.00;;
78887;SDS011;68276;49.326;8.690;2023-03-11T07:55:54;5.50;;;0.90;;
78887;SDS011;68276;49.326;8.690;2023-03-11T07:58:21;2.47;;;0.80;;
78887;SDS011;68276;49.326;8.690;2023-03-11T08:00:46;5.57;;;1.17;;
78887;SDS011;68276;49.326;8.690;2023-03-11T08:03:11;7.43;;;1.40;;
78887;SDS011;68276;49.326;8.690;2023-03-11T08:05:37;4.33;;;0.87;;
78887;SDS011;68276;49.326;8.690;2023-03-11T08:08:02;6.93;;;0.93;;
78887;SDS011;68276;49.326;8.690;2023-03-11T08:10:28;4.80;;;1.27;;
78887;SDS011;68276;49.326;8.690;2023-03-11T08:12:53;10.63;;;1.23;;
78887;SDS011;68276;49.326;8.690;2023-03-11T08:15:18;7.27;;;1.13;;
78887;SDS011;68276;49.326;8.690;2023-03-11T08:17:44;5.10;;;0.80;;
78887;SDS011;68276;49.326;8.690;2023-03-11T08:20:09;4.17;;;0.90;;
78887;SDS011;68276;49.326;8.690;2023-03-11T08:22:35;5.40;;;0.82;;
78887;SDS011;68276;49.326;8.690;2023-03-11T08:25:00;5.22;;;1.33;;
78887;SDS011;68276;49.326;8.690;2023-03-11T08:27:26;3.92;;;0.70;;
78887;SDS011;68276;49.326;8.690;2023-03-11T08:29:52;3.13;;;0.90;;
78887;SDS011;68276;49.326;8.690;2023-03-11T08:32:18;4.95;;;1.10;;
78887;SDS011;68276;49.326;8.690;2023-03-11T08:34:43;3.73;;;0.90;;
78887;SDS011;68276;49.326;8.690;2023-03-11T08:37:08;5.30;;;0.90;;
78887;SDS011;68276;49.326;8.690;2023-03-11T08:39:34;4.47;;;0.83;;
78887;SDS011;68276;49.326;8.690;2023-03-11T08:41:59;2.70;;;0.80;;
78887;SDS011;68276;49.326;8.690;2023-03-11T08:44:27;3.50;;;0.80;;
78887;SDS011;68276;49.326;8.690;2023-03-11T08:46:53;2.22;;;0.70;;
78887;SDS011;68276;49.326;8.690;2023-03-11T08:49:18;2.63;;;0.68;;
78887;SDS011;68276;49.326;8.690;2023-03-11T08:51:43;2.67;;;0.70;;
78887;SDS011;68276;49.326;8.690;2023-03-11T08:54:09;3.23;;;0.80;;
78887;SDS011;68276;49.326;8.690;2023-03-11T08:56:34;8.38;;;1.20;;
78887;SDS011;68276;49.326;8.690;2023-03-11T08:59:00;4.55;;;0.90;;
78887;SDS011;68276;49.326;8.690;2023-03-11T09:01:25;5.32;;;1.10;;
78887;SDS011;68276;49.326;8.690;2023-03-11T09:03:53;6.68;;;1.17;;
78887;SDS011;68276;49.326;8.690;2023-03-11T09:06:19;6.72;;;1.20;;
78887;SDS011;68276;49.326;8.690;2023-03-11T09:08:45;7.88;;;1.45;;
78887;SDS011;68276;49.326;8.690;2023-03-11T09:11:12;4.22;;;1.00;;
78887;SDS011;68276;49.326;8.690;2023-03-11T09:13:39;4.80;;;1.23;;
78887;SDS011;68276;49.326;8.690;2023-03-11T09:16:06;5.95;;;1.55;;
78887;SDS011;68276;49.326;8.690;2023-03-11T09:18:36;5.00;;;0.90;;
78887;SDS011;68276;49.326;8.690;2023-03-11T09:21:01;7.43;;;1.20;;
78887;SDS011;68276;49.326;8.690;2023-03-11T09:23:26;3.58;;;0.88;;
78887;SDS011;68276;49.326;8.690;2023-03-11T09:25:52;9.57;;;1.90;;
78887;SDS011;68276;49.326;8.690;2023-03-11T09:28:17;11.03;;;1.33;;
78887;SDS011;68276;49.326;8.690;2023-03-11T09:30:43;8.23;;;1.10;;
78887;SDS011;68276;49.326;8.690;2023-03-11T09:33:08;4.80;;;1.03;;
78887;SDS011;68276;49.326;8.690;2023-03-11T09:35:33;4.30;;;1.52;;
78887;SDS011;68276;49.326;8.690;2023-03-11T09:37:59;4.47;;;1.17;;
78887;SDS011;68276;49.326;8.690;2023-03-11T09:40:25;5.68;;;1.20;;
78887;SDS011;68276;49.326;8.690;2023-03-11T09:45:50;10.60;;;1.52;;
78887;SDS011;68276;49.326;8.690;2023-03-11T09:51:06;8.45;;;1.50;;
78887;SDS011;68276;49.326;8.690;2023-03-11T09:53:41;5.93;;;1.10;;
78887;SDS011;68276;49.326;8.690;2023-03-11T09:56:11;6.40;;;1.27;;
78887;SDS011;68276;49.326;8.690;2023-03-11T10:01:26;8.20;;;1.13;;
78887;SDS011;68276;49.326;8.690;2023-03-11T10:04:05;8.73;;;1.38;;
78887;SDS011;68276;49.326;8.690;2023-03-11T10:06:44;4.03;;;1.08;;
78887;SDS011;68276;49.326;8.690;2023-03-11T10:16:45;6.03;;;1.00;;
78887;SDS011;68276;49.326;8.690;2023-03-11T10:22:30;7.15;;;1.40;;
78887;SDS011;68276;49.326;8.690;2023-03-11T10:30:14;5.32;;;0.98;;
78887;SDS011;68276;49.326;8.690;2023-03-11T10:32:55;4.85;;;0.90;;
78887;SDS011;68276;49.326;8.690;2023-03-11T10:35:41;3.25;;;1.00;;
78887;SDS011;68276;49.326;8.690;2023-03-11T10:38:22;2.83;;;0.90;;
78887;SDS011;68276;49.326;8.690;2023-03-11T10:40:55;5.93;;;1.00;;
78887;SDS011;68276;49.326;8.690;2023-03-11T10:44:08;6.40;;;0.90;;
78887;SDS011;68276;49.326;8.690;2023-03-11T10:46:18;2.67;;;0.73;;
78887;SDS011;68276;49.326;8.690;2023-03-11T10:48:45;6.25;;;1.13;;
78887;SDS011;68276;49.326;8.690;2023-03-11T10:53:51;8.43;;;1.85;;
78887;SDS011;68276;49.326;8.690;2023-03-11T10:56:34;2.90;;;0.82;;
78887;SDS011;68276;49.326;8.690;2023-03-11T10:59:02;3.25;;;0.60;;
78887;SDS011;68276;49.326;8.690;2023-03-11T11:01:29;2.67;;;0.60;;
78887;SDS011;68276;49.326;8.690;2023-03-11T11:03:56;5.38;;;1.02;;
78887;SDS011;68276;49.326;8.690;2023-03-11T11:13:57;2.97;;;0.60;;
78887;SDS011;68276;49.326;8.690;2023-03-11T11:16:24;2.65;;;0.50;;
78887;SDS011;68276;49.326;8.690;2023-03-11T11:19:33;2.13;;;0.60;;
78887;SDS011;68276;49.326;8.690;2023-03-11T11:21:40;4.05;;;0.90;;
78887;SDS011;68276;49.326;8.690;2023-03-11T11:24:27;1.95;;;0.45;;
78887;SDS011;68276;49.326;8.690;2023-03-11T11:27:04;7.00;;;1.08;;
78887;SDS011;68276;49.326;8.690;2023-03-11T11:29:37;5.35;;;1.00;;
78887;SDS011;68276;49.326;8.690;2023-03-11T11:35:19;6.15;;;1.38;;
78887;SDS011;68276;49.326;8.690;2023-03-11T11:37:41;4.20;;;0.80;;
78887;SDS011;68276;49.326;8.690;2023-03-11T11:42:39;5.75;;;0.95;;
78887;SDS011;68276;49.326;8.690;2023-03-11T11:47:53;8.10;;;1.65;;
78887;SDS011;68276;49.326;8.690;2023-03-11T11:50:31;1.98;;;0.60;;
78887;SDS011;68276;49.326;8.690;2023-03-11T11:53:01;3.05;;;0.57;;
78887;SDS011;68276;49.326;8.690;2023-03-11T11:55:35;10.77;;;2.75;;
78887;SDS011;68276;49.326;8.690;2023-03-11T11:58:09;4.47;;;0.70;;
78887;SDS011;68276;49.326;8.690;2023-03-11T12:03:24;4.15;;;0.82;;
78887;SDS011;68276;49.326;8.690;2023-03-11T12:09:13;5.53;;;0.88;;
78887;SDS011;68276;49.326;8.690;2023-03-11T12:12:07;2.00;;;0.60;;
78887;SDS011;68276;49.326;8.690;2023-03-11T12:14:57;6.15;;;0.68;;
78887;SDS011;68276;49.326;8.690;2023-03-11T12:18:00;4.43;;;0.80;;
78887;SDS011;68276;49.326;8.690;2023-03-11T12:20:37;2.78;;;1.13;;
78887;SDS011;68276;49.326;8.690;2023-03-11T12:26:25;3.55;;;0.90;;
78887;SDS011;68276;49.326;8.690;2023-03-11T12:29:00;3.28;;;1.00;;
78887;SDS011;68276;49.326;8.690;2023-03-11T12:31:33;6.18;;;0.70;;
78887;SDS011;68276;49.326;8.690;2023-03-11T12:34:03;5.43;;;0.65;;
78887;SDS011;68276;49.326;8.690;2023-03-11T12:36:38;3.42;;;0.73;;
78887;SDS011;68276;49.326;8.690;2023-03-11T12:39:20;3.60;;;0.73;;
78887;SDS011;68276;49.326;8.690;2023-03-11T12:41:47;3.13;;;0.63;;
78887;SDS011;68276;49.326;8.690;2023-03-11T12:44:48;6.10;;;1.50;;
78887;SDS011;68276;49.326;8.690;2023-03-11T12:49:38;3.42;;;0.68;;
78887;SDS011;68276;49.326;8.690;2023-03-11T13:02:29;3.78;;;0.60;;
78887;SDS011;68276;49.326;8.690;2023-03-11T13:04:58;4.22;;;0.60;;
78887;SDS011;68276;49.326;8.690;2023-03-11T13:10:47;2.50;;;0.37;;
78887;SDS011;68276;49.326;8.690;2023-03-11T13:15:57;1.92;;;0.65;;
78887;SDS011;68276;49.326;8.690;2023-03-11T13:18:43;3.90;;;0.88;;
78887;SDS011;68276;49.326;8.690;2023-03-11T13:23:51;1.67;;;0.60;;
78887;SDS011;68276;49.326;8.690;2023-03-11T13:26:41;1.90;;;0.73;;
78887;SDS011;68276;49.326;8.690;2023-03-11T13:32:24;1.17;;;0.40;;
78887;SDS011;68276;49.326;8.690;2023-03-11T13:35:09;3.65;;;0.70;;
78887;SDS011;68276;49.326;8.690;2023-03-11T13:40:43;5.95;;;1.17;;
78887;SDS011;68276;49.326;8.690;2023-03-11T13:43:14;4.88;;;1.20;;
78887;SDS011;68276;49.326;8.690;2023-03-11T13:48:46;9.07;;;1.50;;
78887;SDS011;68276;49.326;8.690;2023-03-11T13:53:58;3.92;;;0.75;;
78887;SDS011;68276;49.326;8.690;2023-03-11T13:56:31;5.18;;;1.10;;
78887;SDS011;68276;49.326;8.690;2023-03-11T14:01:53;5.78;;;0.98;;
78887;SDS011;68276;49.326;8.690;2023-03-11T14:04:27;3.95;;;0.93;;
78887;SDS011;68276;49.326;8.690;2023-03-11T14:06:56;3.95;;;1.15;;
78887;SDS011;68276;49.326;8.690;2023-03-11T14:09:23;4.30;;;0.52;;
78887;SDS011;68276;49.326;8.690;2023-03-11T14:11:54;2.50;;;0.57;;
78887;SDS011;68276;49.326;8.690;2023-03-11T14:16:55;4.75;;;1.10;;
78887;SDS011;68276;49.326;8.690;2023-03-11T14:19:22;2.28;;;0.77;;
78887;SDS011;68276;49.326;8.690;2023-03-11T14:21:48;2.85;;;0.60;;
78887;SDS011;68276;49.326;8.690;2023-03-11T14:24:29;2.63;;;0.82;;
78887;SDS011;68276;49.326;8.690;2023-03-11T14:26:56;3.65;;;0.90;;
78887;SDS011;68276;49.326;8.690;2023-03-11T14:29:33;3.63;;;0.70;;
78887;SDS011;68276;49.326;8.690;2023-03-11T14:34:56;7.97;;;0.82;;
78887;SDS011;68276;49.326;8.690;2023-03-11T14:37:32;6.60;;;1.30;;
78887;SDS011;68276;49.326;8.690;2023-03-11T14:39:59;3.65;;;1.00;;
78887;SDS011;68276;49.326;8.690;2023-03-11T14:42:30;2.20;;;0.70;;
78887;SDS011;68276;49.326;8.690;2023-03-11T14:50:34;4.82;;;0.88;;
78887;SDS011;68276;49.326;8.690;2023-03-11T14:55:32;7.30;;;1.10;;
78887;SDS011;68276;49.326;8.690;2023-03-11T14:58:12;5.88;;;1.33;;
78887;SDS011;68276;49.326;8.690;2023-03-11T15:00:45;2.97;;;0.90;;
78887;SDS011;68276;49.326;8.690;2023-03-11T15:03:22;4.63;;;1.00;;
78887;SDS011;68276;49.326;8.690;2023-03-11T15:05:51;3.15;;;0.82;;
78887;SDS011;68276;49.326;8.690;2023-03-11T15:08:21;3.08;;;0.95;;
78887;SDS011;68276;49.326;8.690;2023-03-11T15:13:39;4.38;;;1.20;;
78887;SDS011;68276;49.326;8.690;2023-03-11T15:16:18;3.28;;;0.90;;
78887;SDS011;68276;49.326;8.690;2023-03-11T15:18:49;3.17;;;0.82;;
78887;SDS011;68276;49.326;8.690;2023-03-11T15:21:16;4.45;;;1.27;;
78887;SDS011;68276;49.326;8.690;2023-03-11T15:23:44;6.43;;;2.03;;
78887;SDS011;68276;49.326;8.690;2023-03-11T15:26:24;9.15;;;2.10;;
78887;SDS011;68276;49.326;8.690;2023-03-11T15:29:02;8.50;;;1.95;;
78887;SDS011;68276;49.326;8.690;2023-03-11T15:31:36;4.55;;;1.02;;
78887;SDS011;68276;49.326;8.690;2023-03-11T15:39:16;4.50;;;1.10;;
78887;SDS011;68276;49.326;8.690;2023-03-11T15:41:45;5.13;;;1.20;;
78887;SDS011;68276;49.326;8.690;2023-03-11T15:44:22;5.82;;;1.40;;
78887;SDS011;68276;49.326;8.690;2023-03-11T15:46:52;7.70;;;2.40;;
78887;SDS011;68276;49.326;8.690;2023-03-11T15:49:17;6.60;;;1.80;;
78887;SDS011;68276;49.326;8.690;2023-03-11T15:51:43;5.18;;;1.30;;
78887;SDS011;68276;49.326;8.690;2023-03-11T15:54:08;5.72;;;1.17;;
78887;SDS011;68276;49.326;8.690;2023-03-11T15:56:34;6.13;;;0.90;;
78887;SDS011;68276;49.326;8.690;2023-03-11T15:58:59;4.90;;;1.10;;
78887;SDS011;68276;49.326;8.690;2023-03-11T16:01:25;6.35;;;1.20;;
78887;SDS011;68276;49.326;8.690;2023-03-11T16:03:53;5.93;;;1.02;;
78887;SDS011;68276;49.326;8.690;2023-03-11T16:06:19;5.13;;;1.35;;
78887;SDS011;68276;49.326;8.690;2023-03-11T16:08:47;5.82;;;1.42;;
78887;SDS011;68276;49.326;8.690;2023-03-11T16:11:13;4.60;;;1.10;;
78887;SDS011;68276;49.326;8.690;2023-03-11T16:13:39;3.65;;;1.00;;
78887;SDS011;68276;49.326;8.690;2023-03-11T16:16:05;6.32;;;1.08;;
78887;SDS011;68276;49.326;8.690;2023-03-11T16:18:31;7.10;;;1.20;;
78887;SDS011;68276;49.326;8.690;2023-03-11T16:20:57;3.97;;;0.90;;
78887;SDS011;68276;49.326;8.690;2023-03-11T16:23:27;5.65;;;1.33;;
78887;SDS011;68276;49.326;8.690;2023-03-11T16:25:58;8.75;;;1.40;;
78887;SDS011;68276;49.326;8.690;2023-03-11T16:28:26;8.93;;;1.40;;
78887;SDS011;68276;49.326;8.690;2023-03-11T16:30:52;10.00;;;1.48;;
78887;SDS011;68276;49.326;8.690;2023-03-11T16:33:17;6.93;;;1.55;;
78887;SDS011;68276;49.326;8.690;2023-03-11T16:35:42;13.00;;;2.33;;
78887;SDS011;68276;49.326;8.690;2023-03-11T16:38:08;6.55;;;1.80;;
78887;SDS011;68276;49.326;8.690;2023-03-11T16:40:34;5.35;;;1.45;;
78887;SDS011;68276;49.326;8.690;2023-03-11T16:43:06;7.18;;;1.40;;
78887;SDS011;68276;49.326;8.690;2023-03-11T16:45:34;5.65;;;1.38;;
78887;SDS011;68276;49.326;8.690;2023-03-11T16:48:00;7.07;;;2.03;;
78887;SDS011;68276;49.326;8.690;2023-03-11T16:50:26;8.50;;;1.77;;
78887;SDS011;68276;49.326;8.690;2023-03-11T16:52:53;6.57;;;1.70;;
78887;SDS011;68276;49.326;8.690;2023-03-11T16:55:20;6.88;;;1.40;;
78887;SDS011;68276;49.326;8.690;2023-03-11T16:57:46;10.70;;;2.97;;
78887;SDS011;68276;49.326;8.690;2023-03-11T17:00:12;10.07;;;1.70;;
78887;SDS011;68276;49.326;8.690;2023-03-11T17:02:38;9.75;;;2.33;;
78887;SDS011;68276;49.326;8.690;2023-03-11T17:05:05;10.80;;;2.70;;